Time;durP1;ratioP1;P1;durP2;ratioP2;P2;SDS_P1;SDS_P2;PMS_P1;PMS_P2;Temp;Humidity;BMP_temperature;BMP_pressure;BME280_temperature;BME280_humidity;BME280_pressure;Samples;Min_cycle;Max_cycle;Signal;HPM_P1;HPM_P2
2023/06/25 00:00:17;;;;;;;;;;;17.30;99.90;;;;;;5092224;28;19916;-75
2023/06/25 00:02:42;;;;;;;;;;;17.20;99.90;;;;;;5075146;28;20019;-76
2023/06/25 00:05:08;;;;;;;;;;;17.20;99.90;;;;;;5091910;28;20007;-76
2023/06/25 00:07:37;;;;;;;;;;;17.10;99.90;;;;;;5093462;28;19927;-75
2023/06/25 00:10:02;;;;;;;;;;;17.10;99.90;;;;;;5091451;28;20358;-75
2023/06/25 00:12:28;;;;;;;;;;;17.10;99.90;;;;;;5091891;28;20364;-74
2023/06/25 00:14:53;;;;;;;;;;;17.00;99.90;;;;;;5091183;28;19930;-77
2023/06/25 00:17:19;;;;;;;;;;;17.00;99.90;;;;;;5092176;28;19969;-75
2023/06/25 00:19:45;;;;;;;;;;;17.00;99.90;;;;;;5092711;28;19978;-74
2023/06/25 00:22:11;;;;;;;;;;;17.00;99.90;;;;;;5091659;28;20006;-77
2023/06/25 00:24:40;;;;;;;;;;;17.00;99.90;;;;;;5075656;28;19998;-76
2023/06/25 00:27:06;;;;;;;;;;;16.90;99.90;;;;;;5091458;28;20011;-77
2023/06/25 00:29:33;;;;;;;;;;;16.90;99.90;;;;;;5091867;28;19919;-76
2023/06/25 00:31:59;;;;;;;;;;;16.90;99.90;;;;;;5091427;28;19977;-76
2023/06/25 00:34:24;;;;;;;;;;;16.80;99.90;;;;;;5091903;28;19920;-76
2023/06/25 00:36:52;;;;;;;;;;;16.80;99.90;;;;;;5091376;28;19920;-76
2023/06/25 00:39:18;;;;;;;;;;;16.80;99.90;;;;;;5091544;28;19919;-75
2023/06/25 00:41:43;;;;;;;;;;;16.80;99.90;;;;;;5091812;28;19984;-75
2023/06/25 00:44:09;;;;;;;;;;;16.70;99.90;;;;;;5091286;28;19995;-76
2023/06/25 00:46:38;;;;;;;;;;;16.70;99.90;;;;;;5092941;28;20467;-75
2023/06/25 00:49:06;;;;;;;;;;;16.70;99.90;;;;;;5091154;28;20029;-77
2023/06/25 00:51:35;;;;;;;;;;;16.70;99.90;;;;;;5091618;28;19916;-77
2023/06/25 00:54:05;;;;;;;;;;;16.60;99.90;;;;;;5091286;28;20031;-76
2023/06/25 00:56:34;;;;;;;;;;;16.60;99.90;;;;;;5074565;28;19920;-75
2023/06/25 00:59:03;;;;;;;;;;;16.60;99.90;;;;;;5090840;28;19916;-76
2023/06/25 01:01:32;;;;;;;;;;;16.60;99.90;;;;;;5092722;28;20372;-75
2023/06/25 01:04:10;;;;;;;;;;;16.60;99.90;;;;;;5091022;28;19927;-77
2023/06/25 01:06:40;;;;;;;;;;;16.50;99.90;;;;;;5107959;28;20650;-75
2023/06/25 01:09:08;;;;;;;;;;;16.50;99.90;;;;;;5090623;28;20352;-77
2023/06/25 01:11:33;;;;;;;;;;;16.50;99.90;;;;;;5057237;28;19924;-77
2023/06/25 01:13:59;;;;;;;;;;;16.50;99.90;;;;;;5090295;28;19931;-75
2023/06/25 01:16:25;;;;;;;;;;;16.50;99.90;;;;;;5074021;28;19916;-76
2023/06/25 01:18:50;;;;;;;;;;;16.50;99.90;;;;;;5073975;28;19923;-76
2023/06/25 01:21:18;;;;;;;;;;;16.40;99.90;;;;;;5090716;28;19970;-76
2023/06/25 01:23:43;;;;;;;;;;;16.40;99.90;;;;;;5091447;28;19924;-77
2023/06/25 01:26:09;;;;;;;;;;;16.40;99.90;;;;;;5090162;28;19954;-75
2023/06/25 01:28:35;;;;;;;;;;;16.30;99.90;;;;;;5090352;28;19920;-74
2023/06/25 01:31:03;;;;;;;;;;;16.30;99.90;;;;;;5072925;28;19950;-77
2023/06/25 01:33:29;;;;;;;;;;;16.30;99.90;;;;;;5090596;28;19927;-77
2023/06/25 01:35:55;;;;;;;;;;;16.30;99.90;;;;;;5090421;28;19942;-75
2023/06/25 01:38:21;;;;;;;;;;;16.20;99.90;;;;;;5089943;28;20336;-75
2023/06/25 01:40:46;;;;;;;;;;;16.20;99.90;;;;;;5090254;28;20325;-74
2023/06/25 01:43:12;;;;;;;;;;;16.20;99.90;;;;;;5090059;28;20262;-76
2023/06/25 01:45:37;;;;;;;;;;;16.20;99.90;;;;;;5089943;28;20325;-76
2023/06/25 01:48:03;;;;;;;;;;;16.20;99.90;;;;;;5089912;28;19931;-77
2023/06/25 01:50:29;;;;;;;;;;;16.20;99.90;;;;;;5089787;28;19916;-77
2023/06/25 01:52:54;;;;;;;;;;;16.10;99.90;;;;;;5124464;27;19967;-75
2023/06/25 01:55:20;;;;;;;;;;;16.10;99.90;;;;;;5074241;28;19924;-75
2023/06/25 01:57:46;;;;;;;;;;;16.10;99.90;;;;;;5073770;28;19923;-75
2023/06/25 02:00:12;;;;;;;;;;;16.00;99.90;;;;;;5072587;28;19919;-75
2023/06/25 02:02:37;;;;;;;;;;;16.00;99.90;;;;;;5089387;28;19920;-75
2023/06/25 02:05:03;;;;;;;;;;;16.00;99.90;;;;;;5073031;28;19998;-76
2023/06/25 02:07:35;;;;;;;;;;;16.00;99.90;;;;;;5073200;28;19980;-78
2023/06/25 02:10:00;;;;;;;;;;;15.90;99.90;;;;;;5073019;28;20336;-75
2023/06/25 02:12:26;;;;;;;;;;;15.90;99.90;;;;;;5089496;28;19939;-76
2023/06/25 02:14:51;;;;;;;;;;;15.90;99.90;;;;;;5090011;28;19937;-74
2023/06/25 02:17:17;;;;;;;;;;;15.80;99.90;;;;;;5090568;28;19923;-76
2023/06/25 02:19:43;;;;;;;;;;;15.80;99.90;;;;;;5072386;28;19969;-77
2023/06/25 02:22:10;;;;;;;;;;;15.80;99.90;;;;;;5089560;28;19980;-76
2023/06/25 02:24:35;;;;;;;;;;;15.80;99.90;;;;;;5089964;28;20013;-76
2023/06/25 02:27:01;;;;;;;;;;;15.80;99.90;;;;;;5090195;28;19919;-78
2023/06/25 02:29:26;;;;;;;;;;;15.80;99.90;;;;;;5089026;28;19916;-75
2023/06/25 02:31:52;;;;;;;;;;;15.80;99.90;;;;;;5072756;28;19923;-77
2023/06/25 02:34:21;;;;;;;;;;;15.80;99.90;;;;;;5090285;28;20373;-75
2023/06/25 02:36:47;;;;;;;;;;;15.70;99.90;;;;;;5089448;28;19959;-77
2023/06/25 02:39:13;;;;;;;;;;;15.80;99.90;;;;;;5089280;28;19957;-77
2023/06/25 02:41:39;;;;;;;;;;;15.70;99.90;;;;;;5073090;28;20117;-77
2023/06/25 02:44:04;;;;;;;;;;;15.80;99.90;;;;;;5090118;28;20400;-77
2023/06/25 02:46:30;;;;;;;;;;;15.80;99.90;;;;;;5072286;28;19916;-74
2023/06/25 02:48:55;;;;;;;;;;;15.70;99.90;;;;;;5090971;28;19916;-77
2023/06/25 02:51:21;;;;;;;;;;;15.70;99.90;;;;;;5122949;27;20034;-76
2023/06/25 02:53:46;;;;;;;;;;;15.70;99.90;;;;;;5123406;27;19924;-76
2023/06/25 02:56:12;;;;;;;;;;;15.60;99.90;;;;;;5123205;27;19923;-75
2023/06/25 02:58:38;;;;;;;;;;;15.60;99.90;;;;;;5123426;27;19930;-76
2023/06/25 03:01:03;;;;;;;;;;;15.60;99.90;;;;;;5088771;28;19919;-78
2023/06/25 03:03:29;;;;;;;;;;;15.60;99.90;;;;;;5088516;28;19923;-77
2023/06/25 03:05:54;;;;;;;;;;;15.60;99.90;;;;;;5122273;27;19920;-76
2023/06/25 03:08:20;;;;;;;;;;;15.60;99.90;;;;;;5088293;28;19960;-76
2023/06/25 03:10:46;;;;;;;;;;;15.60;99.90;;;;;;5088464;28;19920;-77
2023/06/25 03:13:11;;;;;;;;;;;15.60;99.90;;;;;;5088646;28;19930;-75
2023/06/25 03:15:37;;;;;;;;;;;15.50;99.90;;;;;;5089262;28;20305;-78
2023/06/25 03:18:03;;;;;;;;;;;15.50;99.90;;;;;;5089080;28;19920;-74
2023/06/25 03:20:29;;;;;;;;;;;15.50;99.90;;;;;;5089354;28;19927;-76
2023/06/25 03:22:54;;;;;;;;;;;15.50;99.90;;;;;;5072391;28;19919;-75
2023/06/25 03:25:22;;;;;;;;;;;15.50;99.90;;;;;;5088848;28;19963;-76
2023/06/25 03:27:48;;;;;;;;;;;15.50;99.90;;;;;;5089514;28;20327;-77
2023/06/25 03:30:13;;;;;;;;;;;15.50;99.90;;;;;;5089361;28;19920;-76
2023/06/25 03:32:39;;;;;;;;;;;15.50;99.90;;;;;;5093102;28;19916;-77
2023/06/25 03:35:06;;;;;;;;;;;15.50;99.90;;;;;;5076385;28;19920;-75
2023/06/25 03:37:32;;;;;;;;;;;15.50;99.90;;;;;;5092485;28;19930;-75
2023/06/25 03:39:58;;;;;;;;;;;15.50;99.90;;;;;;5092629;28;19919;-76
2023/06/25 03:42:23;;;;;;;;;;;15.50;99.90;;;;;;5092479;28;19920;-77
2023/06/25 03:44:51;;;;;;;;;;;15.60;99.90;;;;;;5092585;28;20381;-74
2023/06/25 03:47:17;;;;;;;;;;;15.60;99.90;;;;;;5092285;28;20432;-78
2023/06/25 03:49:43;;;;;;;;;;;15.70;99.90;;;;;;5093018;28;20003;-76
2023/06/25 03:52:08;;;;;;;;;;;15.70;99.90;;;;;;5093156;28;19920;-77
2023/06/25 03:54:34;;;;;;;;;;;15.80;99.90;;;;;;5091745;28;19920;-76
2023/06/25 03:57:00;;;;;;;;;;;15.80;99.90;;;;;;5074869;28;20614;-74
2023/06/25 03:59:25;;;;;;;;;;;15.90;99.90;;;;;;5075442;28;19931;-78
2023/06/25 04:01:51;;;;;;;;;;;15.90;99.90;;;;;;5092972;28;20285;-73
2023/06/25 04:04:16;;;;;;;;;;;16.00;99.90;;;;;;5092001;28;19919;-75
2023/06/25 04:06:42;;;;;;;;;;;16.10;99.90;;;;;;5092220;28;19922;-75
2023/06/25 04:09:08;;;;;;;;;;;16.20;99.90;;;;;;5092728;28;19915;-77
2023/06/25 04:11:33;;;;;;;;;;;16.30;99.90;;;;;;5091957;28;20423;-77
2023/06/25 04:14:05;;;;;;;;;;;16.40;99.90;;;;;;5075828;28;19985;-75
2023/06/25 04:16:30;;;;;;;;;;;16.50;99.90;;;;;;5074734;28;19955;-75
2023/06/25 04:18:56;;;;;;;;;;;16.60;99.90;;;;;;5092318;28;19920;-77
2023/06/25 04:21:22;;;;;;;;;;;16.70;99.90;;;;;;5091535;28;20388;-75
2023/06/25 04:23:53;;;;;;;;;;;16.70;99.90;;;;;;5091886;28;19922;-75
2023/06/25 04:26:30;;;;;;;;;;;16.80;99.90;;;;;;5076548;28;19965;-75
2023/06/25 04:28:56;;;;;;;;;;;16.90;99.90;;;;;;5091390;28;20360;-77
2023/06/25 04:31:23;;;;;;;;;;;17.00;99.90;;;;;;5091600;28;19927;-75
2023/06/25 04:33:49;;;;;;;;;;;17.10;99.90;;;;;;5091925;28;20311;-74
2023/06/25 04:36:15;;;;;;;;;;;17.10;99.90;;;;;;5090969;28;19915;-75
2023/06/25 04:38:40;;;;;;;;;;;17.20;99.90;;;;;;5074711;28;19920;-76
2023/06/25 04:41:06;;;;;;;;;;;17.30;99.90;;;;;;5074279;28;19927;-76
2023/06/25 04:43:31;;;;;;;;;;;17.40;99.90;;;;;;5092513;28;19920;-76
2023/06/25 04:45:57;;;;;;;;;;;17.50;99.90;;;;;;5091441;28;19930;-77
2023/06/25 04:48:23;;;;;;;;;;;17.50;99.90;;;;;;5091400;28;19994;-77
2023/06/25 04:50:48;;;;;;;;;;;17.60;99.90;;;;;;5076243;28;19916;-75
2023/06/25 04:53:14;;;;;;;;;;;17.60;99.90;;;;;;5071320;28;19948;-74
2023/06/25 04:55:39;;;;;;;;;;;17.80;99.90;;;;;;5071113;28;19920;-78
2023/06/25 04:58:08;;;;;;;;;;;17.90;99.90;;;;;;5085692;28;19938;-76
2023/06/25 05:00:34;;;;;;;;;;;18.00;99.90;;;;;;5090710;28;20377;-77
2023/06/25 05:02:59;;;;;;;;;;;18.00;99.90;;;;;;5091464;28;19967;-78
2023/06/25 05:05:25;;;;;;;;;;;18.10;99.90;;;;;;5090659;28;19920;-76
2023/06/25 05:07:51;;;;;;;;;;;18.20;99.90;;;;;;5091117;28;19916;-75
2023/06/25 05:10:20;;;;;;;;;;;18.30;99.90;;;;;;5074212;28;20589;-77
2023/06/25 05:12:45;;;;;;;;;;;18.30;99.90;;;;;;5091133;28;20527;-76
2023/06/25 05:15:11;;;;;;;;;;;18.40;99.90;;;;;;5090731;28;20019;-77
2023/06/25 05:17:36;;;;;;;;;;;18.50;99.90;;;;;;5073737;28;19920;-75
2023/06/25 05:20:04;;;;;;;;;;;18.60;99.90;;;;;;5091308;28;19923;-77
2023/06/25 05:22:30;;;;;;;;;;;18.70;99.90;;;;;;5090519;28;19924;-76
2023/06/25 05:24:55;;;;;;;;;;;18.70;99.90;;;;;;5090580;28;20376;-77
2023/06/25 05:27:22;;;;;;;;;;;18.90;99.90;;;;;;5090158;28;19970;-75
2023/06/25 05:29:48;;;;;;;;;;;18.90;99.90;;;;;;5090731;28;19922;-76
2023/06/25 05:32:15;;;;;;;;;;;19.00;99.90;;;;;;5090622;28;20018;-77
2023/06/25 05:34:41;;;;;;;;;;;19.10;99.90;;;;;;5073192;28;19977;-77
2023/06/25 05:37:06;;;;;;;;;;;19.20;99.90;;;;;;5090263;28;19924;-77
2023/06/25 05:39:32;;;;;;;;;;;19.30;99.90;;;;;;5089834;28;19919;-76
2023/06/25 05:41:58;;;;;;;;;;;19.40;99.90;;;;;;5090088;28;19916;-74
2023/06/25 05:44:27;;;;;;;;;;;19.50;99.90;;;;;;5089939;28;19924;-75
2023/06/25 05:46:53;;;;;;;;;;;19.50;99.90;;;;;;5073162;28;19916;-77
2023/06/25 05:49:19;;;;;;;;;;;19.60;99.90;;;;;;5090015;28;19920;-76
2023/06/25 05:51:44;;;;;;;;;;;19.70;99.90;;;;;;5090216;28;19920;-75
2023/06/25 05:54:10;;;;;;;;;;;19.80;99.90;;;;;;5071875;28;20442;-77
2023/06/25 05:56:35;;;;;;;;;;;19.90;99.90;;;;;;5089649;28;19977;-75
2023/06/25 05:59:01;;;;;;;;;;;19.90;99.90;;;;;;5090207;28;19927;-77
2023/06/25 06:01:27;;;;;;;;;;;20.10;99.90;;;;;;5089654;28;19958;-75
2023/06/25 06:03:52;;;;;;;;;;;20.20;99.90;;;;;;5090083;28;20261;-75
2023/06/25 06:06:18;;;;;;;;;;;20.30;99.90;;;;;;5089948;28;19916;-77
2023/06/25 06:08:44;;;;;;;;;;;20.40;99.90;;;;;;5089817;28;20421;-77
2023/06/25 06:11:10;;;;;;;;;;;20.40;99.90;;;;;;5089942;28;20340;-74
2023/06/25 06:13:36;;;;;;;;;;;20.50;99.90;;;;;;5089282;28;19970;-76
2023/06/25 06:16:02;;;;;;;;;;;20.50;99.90;;;;;;5090028;28;19920;-76
2023/06/25 06:18:27;;;;;;;;;;;20.60;99.90;;;;;;5072868;28;20388;-77
2023/06/25 06:20:53;;;;;;;;;;;20.70;99.90;;;;;;5073408;28;20490;-76
2023/06/25 06:23:25;;;;;;;;;;;20.80;99.90;;;;;;5089867;28;19953;-77
2023/06/25 06:25:50;;;;;;;;;;;20.80;99.90;;;;;;5073024;28;19915;-76
2023/06/25 06:28:16;;;;;;;;;;;20.90;99.90;;;;;;5089594;28;20327;-76
2023/06/25 06:30:42;;;;;;;;;;;21.00;99.90;;;;;;5105906;28;19950;-76
2023/06/25 06:33:07;;;;;;;;;;;21.00;99.90;;;;;;5072500;28;19920;-77
2023/06/25 06:35:34;;;;;;;;;;;21.10;99.90;;;;;;5072147;28;19990;-78
2023/06/25 06:37:59;;;;;;;;;;;21.20;99.90;;;;;;5089183;28;19924;-76
2023/06/25 06:40:25;;;;;;;;;;;21.30;99.90;;;;;;5072322;28;19938;-74
2023/06/25 06:42:51;;;;;;;;;;;21.30;99.90;;;;;;5089380;28;20392;-77
2023/06/25 06:45:16;;;;;;;;;;;21.50;99.90;;;;;;5089536;28;19916;-78
2023/06/25 06:47:43;;;;;;;;;;;21.60;99.90;;;;;;5089323;28;19946;-75
2023/06/25 06:50:09;;;;;;;;;;;21.70;99.90;;;;;;5089284;28;19999;-74
2023/06/25 06:52:34;;;;;;;;;;;21.80;99.90;;;;;;5089038;28;20006;-75
2023/06/25 06:55:00;;;;;;;;;;;21.90;99.90;;;;;;5089233;28;20440;-76
2023/06/25 06:57:26;;;;;;;;;;;22.10;99.90;;;;;;5089028;28;19920;-75
2023/06/25 06:59:51;;;;;;;;;;;22.20;99.90;;;;;;5089616;28;19923;-77
2023/06/25 07:02:17;;;;;;;;;;;22.40;99.90;;;;;;5089854;28;20521;-76
2023/06/25 07:04:43;;;;;;;;;;;22.50;99.90;;;;;;5124390;27;20733;-77
2023/06/25 07:07:08;;;;;;;;;;;22.60;99.90;;;;;;5093307;28;20366;-79
2023/06/25 07:09:34;;;;;;;;;;;22.80;99.90;;;;;;5093237;28;19924;-78
2023/06/25 07:12:00;;;;;;;;;;;22.80;99.90;;;;;;5093312;28;19934;-78
2023/06/25 07:14:25;;;;;;;;;;;23.00;99.90;;;;;;5093048;28;19928;-76
2023/06/25 07:16:52;;;;;;;;;;;23.10;99.90;;;;;;5093344;28;19920;-77
2023/06/25 07:19:18;;;;;;;;;;;23.20;99.90;;;;;;5093241;28;20420;-77
2023/06/25 07:21:44;;;;;;;;;;;23.30;99.90;;;;;;5093328;28;19924;-76
2023/06/25 07:24:09;;;;;;;;;;;23.40;99.90;;;;;;5076443;28;20357;-76
2023/06/25 07:26:35;;;;;;;;;;;23.50;99.90;;;;;;5093270;28;19916;-78
2023/06/25 07:29:00;;;;;;;;;;;23.60;99.90;;;;;;5076635;28;19920;-76
2023/06/25 07:31:32;;;;;;;;;;;23.70;99.90;;;;;;5076569;28;20383;-76
2023/06/25 07:34:03;;;;;;;;;;;23.80;99.90;;;;;;5093058;28;20603;-74
2023/06/25 07:36:30;;;;;;;;;;;24.00;99.90;;;;;;5092427;28;19923;-77
2023/06/25 07:38:56;;;;;;;;;;;24.10;99.90;;;;;;5075861;28;19916;-77
2023/06/25 07:41:22;;;;;;;;;;;24.30;99.90;;;;;;5092526;28;19927;-75
2023/06/25 07:43:47;;;;;;;;;;;24.40;99.90;;;;;;5091928;28;19916;-79
2023/06/25 07:46:13;;;;;;;;;;;24.60;99.90;;;;;;5092800;28;19959;-77
2023/06/25 07:48:39;;;;;;;;;;;24.60;99.90;;;;;;5075390;28;19920;-75
2023/06/25 07:51:04;;;;;;;;;;;24.70;99.90;;;;;;5075425;28;19927;-74
2023/06/25 07:53:30;;;;;;;;;;;24.90;99.90;;;;;;5091800;28;20014;-76
2023/06/25 07:55:55;;;;;;;;;;;25.10;99.90;;;;;;5092347;28;19920;-77
2023/06/25 07:58:21;;;;;;;;;;;25.20;99.90;;;;;;5092545;28;19969;-78
2023/06/25 08:00:46;;;;;;;;;;;25.30;99.90;;;;;;5092285;28;19916;-76
2023/06/25 08:03:12;;;;;;;;;;;25.30;99.90;;;;;;5092302;28;20440;-80
2023/06/25 08:05:37;;;;;;;;;;;25.40;99.90;;;;;;5075340;28;20014;-78
2023/06/25 08:08:03;;;;;;;;;;;25.50;99.90;;;;;;5092316;28;19986;-77
2023/06/25 08:10:29;;;;;;;;;;;25.50;99.90;;;;;;5092092;28;19923;-76
2023/06/25 08:12:54;;;;;;;;;;;25.60;99.90;;;;;;5091690;28;19920;-76
2023/06/25 08:15:20;;;;;;;;;;;25.70;99.90;;;;;;5091833;28;19924;-76
2023/06/25 08:17:46;;;;;;;;;;;25.70;99.90;;;;;;5090703;28;19916;-78
2023/06/25 08:20:12;;;;;;;;;;;25.70;99.90;;;;;;5091864;28;19930;-76
2023/06/25 08:22:37;;;;;;;;;;;25.80;99.90;;;;;;5091055;28;19915;-78
2023/06/25 08:25:06;;;;;;;;;;;25.90;99.90;;;;;;5091427;28;20165;-77
2023/06/25 08:27:31;;;;;;;;;;;26.10;99.90;;;;;;5092052;28;19916;-78
2023/06/25 08:29:57;;;;;;;;;;;26.30;99.90;;;;;;5091573;28;19916;-77
2023/06/25 08:32:22;;;;;;;;;;;26.40;99.90;;;;;;5092041;28;19916;-78
2023/06/25 08:34:48;;;;;;;;;;;26.40;99.90;;;;;;5091179;28;19924;-76
2023/06/25 08:37:14;;;;;;;;;;;26.40;99.90;;;;;;5091217;28;19927;-76
2023/06/25 08:39:39;;;;;;;;;;;26.40;99.90;;;;;;5091843;28;20407;-78
2023/06/25 08:42:05;;;;;;;;;;;26.40;99.90;;;;;;5091144;28;19920;-78
2023/06/25 08:44:31;;;;;;;;;;;26.50;99.90;;;;;;5091589;28;20011;-77
2023/06/25 08:46:57;;;;;;;;;;;26.60;99.90;;;;;;5091547;28;19916;-81
2023/06/25 08:49:25;;;;;;;;;;;26.60;99.90;;;;;;5091428;28;19939;-78
2023/06/25 08:51:53;;;;;;;;;;;26.60;99.90;;;;;;5091130;28;19934;-77
2023/06/25 08:54:19;;;;;;;;;;;26.70;99.90;;;;;;5091467;28;19951;-76
2023/06/25 08:56:45;;;;;;;;;;;26.80;99.90;;;;;;5090917;28;20023;-77
2023/06/25 08:59:11;;;;;;;;;;;27.00;99.90;;;;;;5091193;28;19954;-78
2023/06/25 09:01:36;;;;;;;;;;;27.00;99.90;;;;;;5090956;28;20291;-77
2023/06/25 09:04:02;;;;;;;;;;;27.10;99.90;;;;;;5074539;28;20010;-79
2023/06/25 09:06:27;;;;;;;;;;;27.20;99.90;;;;;;5091035;28;19916;-78
2023/06/25 09:08:53;;;;;;;;;;;27.20;99.90;;;;;;5090809;28;19920;-77
2023/06/25 09:11:19;;;;;;;;;;;27.30;99.90;;;;;;5091065;28;19923;-77
2023/06/25 09:13:45;;;;;;;;;;;27.30;99.90;;;;;;5090909;28;20010;-78
2023/06/25 09:16:10;;;;;;;;;;;27.40;99.90;;;;;;5091519;28;19920;-79
2023/06/25 09:18:36;;;;;;;;;;;27.40;99.90;;;;;;5074235;28;19920;-76
2023/06/25 09:21:03;;;;;;;;;;;27.40;99.90;;;;;;5090434;28;19916;-77
2023/06/25 09:23:28;;;;;;;;;;;27.50;99.90;;;;;;5090941;28;20300;-77
2023/06/25 09:25:54;;;;;;;;;;;27.60;97.50;;;;;;5090495;28;19927;-78
2023/06/25 09:28:20;;;;;;;;;;;27.60;99.50;;;;;;5090570;28;19926;-78
2023/06/25 09:30:45;;;;;;;;;;;27.80;99.90;;;;;;5090579;28;19919;-78
2023/06/25 09:33:12;;;;;;;;;;;27.90;99.90;;;;;;5090105;28;19926;-78
2023/06/25 09:35:38;;;;;;;;;;;28.00;99.10;;;;;;5090677;28;19927;-78
2023/06/25 09:38:04;;;;;;;;;;;28.10;97.20;;;;;;5056679;28;19920;-78
2023/06/25 09:40:30;;;;;;;;;;;28.20;94.40;;;;;;5090555;28;20524;-77
2023/06/25 09:42:57;;;;;;;;;;;28.20;95.50;;;;;;5089574;28;19926;-79
2023/06/25 09:45:23;;;;;;;;;;;28.30;93.50;;;;;;5090023;28;19919;-78
2023/06/25 09:47:49;;;;;;;;;;;28.30;96.40;;;;;;5107177;27;19916;-79
2023/06/25 09:50:18;;;;;;;;;;;28.30;92.20;;;;;;5090049;28;19923;-78
2023/06/25 09:52:53;;;;;;;;;;;28.40;93.10;;;;;;5091298;28;20422;-76
2023/06/25 09:55:20;;;;;;;;;;;28.50;92.90;;;;;;5090135;28;20333;-77
2023/06/25 09:57:47;;;;;;;;;;;28.60;90.00;;;;;;5089690;28;20299;-77
2023/06/25 10:00:13;;;;;;;;;;;28.60;90.30;;;;;;5089529;28;19927;-78
2023/06/25 10:02:39;;;;;;;;;;;28.60;85.90;;;;;;5089838;28;20291;-77
2023/06/25 10:05:04;;;;;;;;;;;28.60;90.90;;;;;;5089323;28;19920;-78
2023/06/25 10:07:30;;;;;;;;;;;28.70;92.10;;;;;;5089561;28;19920;-77
2023/06/25 10:09:56;;;;;;;;;;;28.70;91.10;;;;;;5089655;28;19995;-77
2023/06/25 10:12:22;;;;;;;;;;;28.80;90.10;;;;;;5073152;28;20027;-76
2023/06/25 10:14:48;;;;;;;;;;;28.80;91.90;;;;;;5089341;28;20437;-77
2023/06/25 10:17:14;;;;;;;;;;;28.90;91.40;;;;;;5090419;28;19924;-76
2023/06/25 10:19:50;;;;;;;;;;;29.00;90.00;;;;;;5089781;28;20383;-78
2023/06/25 10:22:20;;;;;;;;;;;29.10;91.90;;;;;;5090108;28;20315;-79
2023/06/25 10:24:50;;;;;;;;;;;29.20;91.70;;;;;;5089431;28;19916;-78
2023/06/25 10:27:22;;;;;;;;;;;29.10;90.90;;;;;;5089687;28;20114;-78
2023/06/25 10:29:47;;;;;;;;;;;29.20;91.10;;;;;;5089165;28;19972;-78
2023/06/25 10:32:17;;;;;;;;;;;29.30;89.20;;;;;;5090803;28;19964;-77
2023/06/25 10:34:43;;;;;;;;;;;29.40;88.10;;;;;;5088792;28;19931;-80
2023/06/25 10:37:12;;;;;;;;;;;29.50;90.40;;;;;;5088889;28;20297;-78
2023/06/25 10:39:41;;;;;;;;;;;29.50;86.50;;;;;;5093420;28;19920;-77
2023/06/25 10:42:07;;;;;;;;;;;29.50;87.60;;;;;;5095771;28;20365;-78
2023/06/25 10:44:33;;;;;;;;;;;29.40;84.30;;;;;;5097580;28;19919;-78
2023/06/25 10:47:06;;;;;;;;;;;29.40;84.90;;;;;;5097169;28;19962;-77
2023/06/25 10:49:32;;;;;;;;;;;29.50;87.00;;;;;;5095716;28;19942;-77
2023/06/25 10:51:58;;;;;;;;;;;29.50;85.20;;;;;;5095561;28;19920;-77
2023/06/25 10:54:23;;;;;;;;;;;29.70;85.70;;;;;;5095780;28;19963;-78
2023/06/25 10:56:49;;;;;;;;;;;29.90;83.00;;;;;;5095936;28;20386;-80
2023/06/25 10:59:22;;;;;;;;;;;29.90;84.30;;;;;;5096736;28;20070;-78
2023/06/25 11:01:49;;;;;;;;;;;30.00;85.70;;;;;;5096683;28;20427;-78
2023/06/25 11:04:15;;;;;;;;;;;30.10;84.30;;;;;;5095711;28;20368;-77
2023/06/25 11:06:43;;;;;;;;;;;30.20;83.80;;;;;;5096296;28;19920;-80
2023/06/25 11:09:09;;;;;;;;;;;30.20;82.80;;;;;;5095632;28;20292;-79
2023/06/25 11:11:36;;;;;;;;;;;30.30;83.10;;;;;;5097607;28;19938;-77
2023/06/25 11:14:02;;;;;;;;;;;30.30;82.30;;;;;;5095633;28;19924;-78
2023/06/25 11:16:27;;;;;;;;;;;30.40;79.30;;;;;;5096042;28;19935;-78
2023/06/25 11:18:53;;;;;;;;;;;30.40;83.30;;;;;;5095472;28;20365;-77
2023/06/25 11:21:19;;;;;;;;;;;30.50;80.10;;;;;;5079384;28;20443;-78
2023/06/25 11:23:44;;;;;;;;;;;30.70;78.90;;;;;;5095988;28;19966;-78
2023/06/25 11:26:13;;;;;;;;;;;30.70;80.70;;;;;;5095549;28;19927;-77
2023/06/25 11:28:38;;;;;;;;;;;30.90;80.10;;;;;;5096318;28;19969;-77
2023/06/25 11:31:04;;;;;;;;;;;30.90;78.30;;;;;;5095508;28;20381;-77
2023/06/25 11:33:30;;;;;;;;;;;31.00;79.30;;;;;;5095781;28;19927;-77
2023/06/25 11:36:06;;;;;;;;;;;31.00;77.40;;;;;;5094894;28;19924;-77
2023/06/25 11:38:33;;;;;;;;;;;31.00;79.90;;;;;;5095363;28;20018;-78
2023/06/25 11:40:58;;;;;;;;;;;31.10;76.90;;;;;;5096206;28;19916;-78
2023/06/25 11:43:24;;;;;;;;;;;31.20;78.40;;;;;;5129889;27;19930;-77
2023/06/25 11:45:50;;;;;;;;;;;31.20;76.20;;;;;;5094995;28;19955;-77
2023/06/25 11:48:16;;;;;;;;;;;31.30;76.30;;;;;;5097185;28;20330;-76
2023/06/25 11:50:43;;;;;;;;;;;31.30;74.70;;;;;;5093823;28;19919;-78
2023/06/25 11:53:09;;;;;;;;;;;31.40;76.00;;;;;;5091532;28;19926;-77
2023/06/25 11:55:34;;;;;;;;;;;31.40;75.00;;;;;;5092159;28;19924;-78
2023/06/25 11:58:00;;;;;;;;;;;31.50;75.80;;;;;;5075134;28;19920;-78
2023/06/25 12:00:25;;;;;;;;;;;31.70;76.90;;;;;;5074845;28;19924;-78
2023/06/25 12:02:51;;;;;;;;;;;32.00;72.70;;;;;;5092019;28;19915;-78
2023/06/25 12:05:16;;;;;;;;;;;32.20;72.40;;;;;;5091769;28;20404;-77
2023/06/25 12:07:42;;;;;;;;;;;32.20;71.90;;;;;;5093646;28;19920;-77
2023/06/25 12:10:08;;;;;;;;;;;32.40;69.00;;;;;;5074625;28;19920;-78
2023/06/25 12:12:33;;;;;;;;;;;32.60;72.40;;;;;;5091788;28;20654;-78
2023/06/25 12:14:59;;;;;;;;;;;32.90;71.50;;;;;;5091339;28;19938;-77
2023/06/25 12:17:24;;;;;;;;;;;32.80;69.70;;;;;;5074831;28;19920;-77
2023/06/25 12:19:50;;;;;;;;;;;32.60;71.00;;;;;;5091999;28;19962;-76
2023/06/25 12:22:15;;;;;;;;;;;32.60;71.70;;;;;;5091420;28;19931;-76
2023/06/25 12:24:41;;;;;;;;;;;32.70;69.90;;;;;;5091777;28;19916;-77
2023/06/25 12:27:07;;;;;;;;;;;32.40;68.80;;;;;;5091831;28;20033;-78
2023/06/25 12:29:32;;;;;;;;;;;32.30;68.90;;;;;;5091622;28;19923;-78
2023/06/25 12:31:58;;;;;;;;;;;32.40;72.00;;;;;;5091724;28;19978;-79
2023/06/25 12:34:24;;;;;;;;;;;32.60;72.30;;;;;;5074417;28;20388;-78
2023/06/25 12:36:49;;;;;;;;;;;32.90;69.80;;;;;;5074495;28;19924;-78
2023/06/25 12:39:15;;;;;;;;;;;33.20;70.70;;;;;;5073929;28;19927;-78
2023/06/25 12:41:40;;;;;;;;;;;33.40;68.50;;;;;;5074834;28;19927;-79
2023/06/25 12:44:07;;;;;;;;;;;33.40;67.50;;;;;;5091046;28;19966;-78
2023/06/25 12:46:33;;;;;;;;;;;33.50;64.90;;;;;;5091661;28;19916;-79
2023/06/25 12:49:00;;;;;;;;;;;33.20;65.60;;;;;;5074884;28;20006;-78
2023/06/25 12:51:26;;;;;;;;;;;33.10;66.30;;;;;;5091547;28;19924;-79
2023/06/25 12:53:52;;;;;;;;;;;33.30;66.20;;;;;;5090894;28;19924;-77
2023/06/25 12:56:18;;;;;;;;;;;33.50;63.90;;;;;;5090486;28;19984;-77
2023/06/25 12:58:43;;;;;;;;;;;33.70;63.70;;;;;;5090988;28;19968;-77
2023/06/25 13:01:13;;;;;;;;;;;33.90;69.40;;;;;;5092470;28;19924;-78
2023/06/25 13:03:40;;;;;;;;;;;34.20;63.80;;;;;;5091039;28;20363;-79
2023/06/25 13:06:06;;;;;;;;;;;34.60;65.50;;;;;;5091612;28;19915;-79
2023/06/25 13:08:32;;;;;;;;;;;34.90;65.10;;;;;;5092704;28;19920;-79
2023/06/25 13:10:57;;;;;;;;;;;35.10;62.20;;;;;;5091345;28;19920;-78
2023/06/25 13:13:23;;;;;;;;;;;35.30;60.40;;;;;;5090938;28;19923;-77
2023/06/25 13:15:48;;;;;;;;;;;35.30;62.60;;;;;;5090519;28;20434;-78
2023/06/25 13:18:14;;;;;;;;;;;35.20;57.40;;;;;;5092447;28;19924;-79
2023/06/25 13:20:40;;;;;;;;;;;35.30;54.90;;;;;;5090988;28;19941;-80
2023/06/25 13:23:06;;;;;;;;;;;35.30;55.20;;;;;;5090816;28;19919;-78
2023/06/25 13:25:31;;;;;;;;;;;35.40;55.90;;;;;;5090827;28;19931;-79
2023/06/25 13:27:57;;;;;;;;;;;35.70;61.60;;;;;;5123719;27;20595;-78
2023/06/25 13:30:25;;;;;;;;;;;36.00;55.80;;;;;;5090833;28;19935;-80
2023/06/25 13:32:51;;;;;;;;;;;35.90;52.50;;;;;;5090576;28;19916;-79
2023/06/25 13:35:16;;;;;;;;;;;35.90;54.20;;;;;;5090173;28;20266;-79
2023/06/25 13:37:42;;;;;;;;;;;36.00;59.70;;;;;;5090657;28;19931;-80
2023/06/25 13:40:08;;;;;;;;;;;36.10;57.80;;;;;;5073302;28;19923;-79
2023/06/25 13:42:33;;;;;;;;;;;35.90;51.80;;;;;;5090933;28;19916;-77
2023/06/25 13:44:59;;;;;;;;;;;36.00;57.30;;;;;;5090279;28;20054;-80
2023/06/25 13:47:25;;;;;;;;;;;36.20;53.70;;;;;;5073788;28;20022;-78
2023/06/25 13:49:50;;;;;;;;;;;36.70;53.90;;;;;;5090571;28;19919;-79
2023/06/25 13:52:16;;;;;;;;;;;37.10;52.70;;;;;;5090180;28;20004;-78
2023/06/25 13:54:42;;;;;;;;;;;37.10;55.80;;;;;;5090621;28;19920;-78
2023/06/25 13:57:07;;;;;;;;;;;37.10;52.60;;;;;;5090443;28;19926;-78
2023/06/25 13:59:33;;;;;;;;;;;36.80;54.80;;;;;;5090202;28;19919;-78
2023/06/25 14:01:59;;;;;;;;;;;36.70;53.00;;;;;;5089530;28;19927;-78
2023/06/25 14:04:24;;;;;;;;;;;36.50;51.10;;;;;;5089907;28;19924;-79
2023/06/25 14:06:50;;;;;;;;;;;36.50;51.70;;;;;;5090475;28;20006;-79
2023/06/25 14:09:15;;;;;;;;;;;36.50;49.70;;;;;;5089664;28;20381;-80